sensor_id;sensor_type;location;lat;lon;timestamp;P1;durP1;ratioP1;P2;durP2;ratioP2
5754;SDS011;2902;42.130;24.732;2022-09-14T00:01:11;2.70;;;2.50;;
5754;SDS011;2902;42.130;24.732;2022-09-14T00:03:40;5.50;;;3.03;;
5754;SDS011;2902;42.130;24.732;2022-09-14T00:06:08;3.17;;;2.90;;
5754;SDS011;2902;42.130;24.732;2022-09-14T00:08:36;2.50;;;2.40;;
5754;SDS011;2902;42.130;24.732;2022-09-14T00:11:04;2.37;;;2.27;;
5754;SDS011;2902;42.130;24.732;2022-09-14T00:13:32;4.23;;;2.83;;
5754;SDS011;2902;42.130;24.732;2022-09-14T00:16:01;2.63;;;2.53;;
5754;SDS011;2902;42.130;24.732;2022-09-14T00:18:29;2.50;;;2.33;;
5754;SDS011;2902;42.130;24.732;2022-09-14T00:21:02;2.73;;;2.60;;
5754;SDS011;2902;42.130;24.732;2022-09-14T00:23:30;2.97;;;2.70;;
5754;SDS011;2902;42.130;24.732;2022-09-14T00:26:00;3.17;;;2.07;;
5754;SDS011;2902;42.130;24.732;2022-09-14T00:28:28;2.17;;;2.07;;
5754;SDS011;2902;42.130;24.732;2022-09-14T00:30:54;2.47;;;2.27;;
5754;SDS011;2902;42.130;24.732;2022-09-14T00:33:21;2.43;;;2.33;;
5754;SDS011;2902;42.130;24.732;2022-09-14T00:35:48;2.67;;;2.47;;
5754;SDS011;2902;42.130;24.732;2022-09-14T00:38:16;2.47;;;2.37;;
5754;SDS011;2902;42.130;24.732;2022-09-14T00:40:43;3.93;;;2.20;;
5754;SDS011;2902;42.130;24.732;2022-09-14T00:43:11;2.40;;;2.23;;
5754;SDS011;2902;42.130;24.732;2022-09-14T00:45:40;3.27;;;2.40;;
5754;SDS011;2902;42.130;24.732;2022-09-14T00:48:07;5.13;;;2.20;;
5754;SDS011;2902;42.130;24.732;2022-09-14T00:50:34;2.67;;;2.47;;
5754;SDS011;2902;42.130;24.732;2022-09-14T00:53:01;2.50;;;2.40;;
5754;SDS011;2902;42.130;24.732;2022-09-14T00:55:30;3.30;;;2.70;;
5754;SDS011;2902;42.130;24.732;2022-09-14T00:57:58;3.20;;;2.87;;
5754;SDS011;2902;42.130;24.732;2022-09-14T01:00:26;3.93;;;2.67;;
5754;SDS011;2902;42.130;24.732;2022-09-14T01:02:54;2.67;;;2.57;;
5754;SDS011;2902;42.130;24.732;2022-09-14T01:05:22;2.70;;;2.50;;
5754;SDS011;2902;42.130;24.732;2022-09-14T01:08:06;3.23;;;2.87;;
5754;SDS011;2902;42.130;24.732;2022-09-14T01:10:43;3.77;;;2.73;;
5754;SDS011;2902;42.130;24.732;2022-09-14T01:13:21;3.23;;;2.90;;
5754;SDS011;2902;42.130;24.732;2022-09-14T01:15:58;2.47;;;2.37;;
5754;SDS011;2902;42.130;24.732;2022-09-14T01:18:32;3.53;;;3.00;;
5754;SDS011;2902;42.130;24.732;2022-09-14T01:21:03;4.30;;;2.87;;
5754;SDS011;2902;42.130;24.732;2022-09-14T01:23:36;3.10;;;2.90;;
5754;SDS011;2902;42.130;24.732;2022-09-14T01:26:22;2.87;;;2.67;;
5754;SDS011;2902;42.130;24.732;2022-09-14T01:29:01;3.10;;;2.90;;
5754;SDS011;2902;42.130;24.732;2022-09-14T01:31:33;4.13;;;3.30;;
5754;SDS011;2902;42.130;24.732;2022-09-14T01:34:06;4.20;;;2.90;;
5754;SDS011;2902;42.130;24.732;2022-09-14T01:36:36;4.57;;;2.77;;
5754;SDS011;2902;42.130;24.732;2022-09-14T01:39:07;4.07;;;3.00;;
5754;SDS011;2902;42.130;24.732;2022-09-14T01:41:35;4.00;;;3.20;;
5754;SDS011;2902;42.130;24.732;2022-09-14T01:44:08;4.07;;;3.33;;
5754;SDS011;2902;42.130;24.732;2022-09-14T01:46:40;3.80;;;3.50;;
5754;SDS011;2902;42.130;24.732;2022-09-14T01:49:10;4.33;;;3.83;;
5754;SDS011;2902;42.130;24.732;2022-09-14T01:51:43;4.07;;;3.37;;
5754;SDS011;2902;42.130;24.732;2022-09-14T01:54:13;3.10;;;2.83;;
5754;SDS011;2902;42.130;24.732;2022-09-14T01:56:47;5.00;;;3.07;;
5754;SDS011;2902;42.130;24.732;2022-09-14T01:59:18;3.30;;;3.10;;
5754;SDS011;2902;42.130;24.732;2022-09-14T02:01:49;3.23;;;3.03;;
5754;SDS011;2902;42.130;24.732;2022-09-14T02:04:21;3.03;;;2.93;;
5754;SDS011;2902;42.130;24.732;2022-09-14T02:06:54;8.07;;;3.33;;
5754;SDS011;2902;42.130;24.732;2022-09-14T02:09:22;2.93;;;2.80;;
5754;SDS011;2902;42.130;24.732;2022-09-14T02:11:51;2.83;;;2.70;;
5754;SDS011;2902;42.130;24.732;2022-09-14T02:14:21;3.87;;;2.70;;
5754;SDS011;2902;42.130;24.732;2022-09-14T02:16:48;2.67;;;2.47;;
5754;SDS011;2902;42.130;24.732;2022-09-14T02:19:15;4.20;;;3.10;;
5754;SDS011;2902;42.130;24.732;2022-09-14T02:21:42;2.97;;;2.80;;
5754;SDS011;2902;42.130;24.732;2022-09-14T02:24:09;4.40;;;2.73;;
5754;SDS011;2902;42.130;24.732;2022-09-14T02:26:37;2.70;;;2.60;;
5754;SDS011;2902;42.130;24.732;2022-09-14T02:29:05;3.77;;;3.10;;
5754;SDS011;2902;42.130;24.732;2022-09-14T02:31:36;2.93;;;2.83;;
5754;SDS011;2902;42.130;24.732;2022-09-14T02:34:15;3.93;;;2.57;;
5754;SDS011;2902;42.130;24.732;2022-09-14T02:36:50;4.03;;;2.97;;
5754;SDS011;2902;42.130;24.732;2022-09-14T02:39:28;2.70;;;2.50;;
5754;SDS011;2902;42.130;24.732;2022-09-14T02:42:03;3.17;;;2.97;;
5754;SDS011;2902;42.130;24.732;2022-09-14T02:44:41;4.07;;;2.90;;
5754;SDS011;2902;42.130;24.732;2022-09-14T02:47:16;3.23;;;2.70;;
5754;SDS011;2902;42.130;24.732;2022-09-14T02:49:50;2.83;;;2.60;;
5754;SDS011;2902;42.130;24.732;2022-09-14T02:52:24;2.77;;;2.57;;
5754;SDS011;2902;42.130;24.732;2022-09-14T02:54:56;2.73;;;2.63;;
5754;SDS011;2902;42.130;24.732;2022-09-14T02:57:28;3.33;;;2.63;;
5754;SDS011;2902;42.130;24.732;2022-09-14T02:59:55;2.40;;;2.30;;
5754;SDS011;2902;42.130;24.732;2022-09-14T03:02:23;4.57;;;2.90;;
5754;SDS011;2902;42.130;24.732;2022-09-14T03:04:50;3.00;;;2.80;;
5754;SDS011;2902;42.130;24.732;2022-09-14T03:07:17;3.97;;;2.93;;
5754;SDS011;2902;42.130;24.732;2022-09-14T03:09:44;2.97;;;2.77;;
5754;SDS011;2902;42.130;24.732;2022-09-14T03:12:10;3.50;;;2.73;;
5754;SDS011;2902;42.130;24.732;2022-09-14T03:14:37;3.90;;;2.73;;
5754;SDS011;2902;42.130;24.732;2022-09-14T03:17:04;4.63;;;2.97;;
5754;SDS011;2902;42.130;24.732;2022-09-14T03:19:33;3.47;;;3.20;;
5754;SDS011;2902;42.130;24.732;2022-09-14T03:21:59;4.57;;;3.13;;
5754;SDS011;2902;42.130;24.732;2022-09-14T03:24:26;9.60;;;4.20;;
5754;SDS011;2902;42.130;24.732;2022-09-14T03:26:53;3.67;;;3.37;;
5754;SDS011;2902;42.130;24.732;2022-09-14T03:29:20;10.63;;;3.67;;
5754;SDS011;2902;42.130;24.732;2022-09-14T03:31:46;3.43;;;2.90;;
5754;SDS011;2902;42.130;24.732;2022-09-14T03:34:13;4.00;;;3.00;;
5754;SDS011;2902;42.130;24.732;2022-09-14T03:36:41;5.97;;;3.40;;
5754;SDS011;2902;42.130;24.732;2022-09-14T03:39:08;5.50;;;3.67;;
5754;SDS011;2902;42.130;24.732;2022-09-14T03:41:36;6.57;;;3.40;;
5754;SDS011;2902;42.130;24.732;2022-09-14T03:44:03;5.07;;;3.43;;
5754;SDS011;2902;42.130;24.732;2022-09-14T03:46:30;6.03;;;3.70;;
5754;SDS011;2902;42.130;24.732;2022-09-14T03:48:56;8.50;;;3.63;;
5754;SDS011;2902;42.130;24.732;2022-09-14T03:51:23;4.07;;;3.60;;
5754;SDS011;2902;42.130;24.732;2022-09-14T03:53:51;6.43;;;3.37;;
5754;SDS011;2902;42.130;24.732;2022-09-14T03:56:19;6.07;;;3.80;;
5754;SDS011;2902;42.130;24.732;2022-09-14T03:58:49;11.00;;;4.03;;
5754;SDS011;2902;42.130;24.732;2022-09-14T04:01:16;8.40;;;4.27;;
5754;SDS011;2902;42.130;24.732;2022-09-14T04:03:45;12.50;;;3.90;;
5754;SDS011;2902;42.130;24.732;2022-09-14T04:06:12;8.33;;;3.50;;
5754;SDS011;2902;42.130;24.732;2022-09-14T04:08:40;10.87;;;3.23;;
5754;SDS011;2902;42.130;24.732;2022-09-14T04:11:10;10.63;;;3.53;;
5754;SDS011;2902;42.130;24.732;2022-09-14T04:13:39;19.53;;;4.33;;
5754;SDS011;2902;42.130;24.732;2022-09-14T04:16:06;5.07;;;3.73;;
5754;SDS011;2902;42.130;24.732;2022-09-14T04:18:33;8.50;;;3.50;;
5754;SDS011;2902;42.130;24.732;2022-09-14T04:21:01;8.67;;;4.53;;
5754;SDS011;2902;42.130;24.732;2022-09-14T04:23:30;6.83;;;4.30;;
5754;SDS011;2902;42.130;24.732;2022-09-14T04:25:57;8.63;;;4.50;;
5754;SDS011;2902;42.130;24.732;2022-09-14T04:28:25;6.80;;;4.40;;
5754;SDS011;2902;42.130;24.732;2022-09-14T04:30:57;7.00;;;4.67;;
5754;SDS011;2902;42.130;24.732;2022-09-14T04:33:24;6.83;;;4.90;;
5754;SDS011;2902;42.130;24.732;2022-09-14T04:35:55;12.50;;;4.67;;
5754;SDS011;2902;42.130;24.732;2022-09-14T04:38:25;12.83;;;4.60;;
5754;SDS011;2902;42.130;24.732;2022-09-14T04:40:52;14.70;;;4.80;;
5754;SDS011;2902;42.130;24.732;2022-09-14T04:43:19;9.77;;;5.10;;
5754;SDS011;2902;42.130;24.732;2022-09-14T04:45:47;13.33;;;4.80;;
5754;SDS011;2902;42.130;24.732;2022-09-14T04:48:14;7.77;;;4.43;;
5754;SDS011;2902;42.130;24.732;2022-09-14T04:50:41;8.40;;;4.90;;
5754;SDS011;2902;42.130;24.732;2022-09-14T04:53:08;10.77;;;3.93;;
5754;SDS011;2902;42.130;24.732;2022-09-14T04:55:35;12.47;;;3.67;;
5754;SDS011;2902;42.130;24.732;2022-09-14T04:58:02;4.07;;;3.77;;
5754;SDS011;2902;42.130;24.732;2022-09-14T05:00:29;11.00;;;4.57;;
5754;SDS011;2902;42.130;24.732;2022-09-14T05:03:01;11.70;;;5.00;;
5754;SDS011;2902;42.130;24.732;2022-09-14T05:05:28;4.60;;;4.10;;
5754;SDS011;2902;42.130;24.732;2022-09-14T05:07:56;8.03;;;3.90;;
5754;SDS011;2902;42.130;24.732;2022-09-14T05:10:23;8.50;;;4.43;;
5754;SDS011;2902;42.130;24.732;2022-09-14T05:12:50;8.03;;;3.80;;
5754;SDS011;2902;42.130;24.732;2022-09-14T05:15:16;12.57;;;4.10;;
5754;SDS011;2902;42.130;24.732;2022-09-14T05:17:43;6.47;;;3.40;;
5754;SDS011;2902;42.130;24.732;2022-09-14T05:20:11;9.50;;;4.20;;
5754;SDS011;2902;42.130;24.732;2022-09-14T05:22:38;12.37;;;3.53;;
5754;SDS011;2902;42.130;24.732;2022-09-14T05:25:05;5.97;;;3.70;;
5754;SDS011;2902;42.130;24.732;2022-09-14T05:27:32;8.60;;;4.30;;
5754;SDS011;2902;42.130;24.732;2022-09-14T05:29:59;19.07;;;4.50;;
5754;SDS011;2902;42.130;24.732;2022-09-14T05:32:25;6.80;;;4.07;;
5754;SDS011;2902;42.130;24.732;2022-09-14T05:34:52;7.30;;;4.90;;
5754;SDS011;2902;42.130;24.732;2022-09-14T05:37:21;10.20;;;4.70;;
5754;SDS011;2902;42.130;24.732;2022-09-14T05:39:47;9.83;;;4.43;;
5754;SDS011;2902;42.130;24.732;2022-09-14T05:42:14;12.67;;;4.17;;
5754;SDS011;2902;42.130;24.732;2022-09-14T05:44:41;7.20;;;3.93;;
5754;SDS011;2902;42.130;24.732;2022-09-14T05:47:07;6.07;;;3.80;;
5754;SDS011;2902;42.130;24.732;2022-09-14T05:49:34;9.00;;;4.97;;
5754;SDS011;2902;42.130;24.732;2022-09-14T05:52:01;5.47;;;3.90;;
5754;SDS011;2902;42.130;24.732;2022-09-14T05:54:30;7.17;;;3.90;;
5754;SDS011;2902;42.130;24.732;2022-09-14T05:56:56;47.87;;;6.77;;
5754;SDS011;2902;42.130;24.732;2022-09-14T05:59:23;24.33;;;5.43;;
5754;SDS011;2902;42.130;24.732;2022-09-14T06:01:50;10.47;;;4.10;;
5754;SDS011;2902;42.130;24.732;2022-09-14T06:04:16;13.90;;;4.40;;
5754;SDS011;2902;42.130;24.732;2022-09-14T06:06:43;11.53;;;4.00;;
5754;SDS011;2902;42.130;24.732;2022-09-14T06:09:10;10.27;;;3.70;;
5754;SDS011;2902;42.130;24.732;2022-09-14T06:11:38;9.77;;;3.57;;
5754;SDS011;2902;42.130;24.732;2022-09-14T06:14:04;12.17;;;3.47;;
5754;SDS011;2902;42.130;24.732;2022-09-14T06:16:31;5.50;;;3.10;;
5754;SDS011;2902;42.130;24.732;2022-09-14T06:18:58;12.37;;;3.77;;
5754;SDS011;2902;42.130;24.732;2022-09-14T06:21:26;13.50;;;4.33;;
5754;SDS011;2902;42.130;24.732;2022-09-14T06:23:55;11.13;;;3.90;;
5754;SDS011;2902;42.130;24.732;2022-09-14T06:26:22;7.43;;;3.57;;
5754;SDS011;2902;42.130;24.732;2022-09-14T06:28:50;7.03;;;3.27;;
5754;SDS011;2902;42.130;24.732;2022-09-14T06:31:17;5.40;;;2.73;;
5754;SDS011;2902;42.130;24.732;2022-09-14T06:33:47;8.67;;;3.43;;
5754;SDS011;2902;42.130;24.732;2022-09-14T06:36:15;4.00;;;2.70;;
5754;SDS011;2902;42.130;24.732;2022-09-14T06:38:43;3.10;;;2.80;;
5754;SDS011;2902;42.130;24.732;2022-09-14T06:41:12;5.73;;;2.87;;
5754;SDS011;2902;42.130;24.732;2022-09-14T06:43:42;4.67;;;3.07;;
5754;SDS011;2902;42.130;24.732;2022-09-14T06:46:11;9.47;;;2.80;;
5754;SDS011;2902;42.130;24.732;2022-09-14T06:48:40;3.43;;;3.17;;
5754;SDS011;2902;42.130;24.732;2022-09-14T06:51:10;6.53;;;3.63;;
5754;SDS011;2902;42.130;24.732;2022-09-14T06:53:38;7.17;;;3.00;;
5754;SDS011;2902;42.130;24.732;2022-09-14T06:56:05;8.67;;;2.63;;
5754;SDS011;2902;42.130;24.732;2022-09-14T06:58:32;8.43;;;3.20;;
5754;SDS011;2902;42.130;24.732;2022-09-14T07:01:02;8.70;;;3.00;;
5754;SDS011;2902;42.130;24.732;2022-09-14T07:03:31;8.50;;;3.27;;
5754;SDS011;2902;42.130;24.732;2022-09-14T07:06:00;7.43;;;3.47;;
5754;SDS011;2902;42.130;24.732;2022-09-14T07:08:30;7.20;;;3.60;;
5754;SDS011;2902;42.130;24.732;2022-09-14T07:10:57;6.50;;;3.50;;
5754;SDS011;2902;42.130;24.732;2022-09-14T07:13:24;6.83;;;3.90;;
5754;SDS011;2902;42.130;24.732;2022-09-14T07:15:52;11.17;;;3.50;;
5754;SDS011;2902;42.130;24.732;2022-09-14T07:18:19;5.93;;;3.60;;
5754;SDS011;2902;42.130;24.732;2022-09-14T07:20:48;5.90;;;4.07;;
5754;SDS011;2902;42.130;24.732;2022-09-14T07:23:15;5.90;;;3.23;;
5754;SDS011;2902;42.130;24.732;2022-09-14T07:25:41;7.67;;;4.07;;
5754;SDS011;2902;42.130;24.732;2022-09-14T07:28:08;8.27;;;3.30;;
5754;SDS011;2902;42.130;24.732;2022-09-14T07:30:35;3.80;;;2.93;;
5754;SDS011;2902;42.130;24.732;2022-09-14T07:33:03;6.07;;;3.53;;
5754;SDS011;2902;42.130;24.732;2022-09-14T07:35:30;8.90;;;2.97;;
5754;SDS011;2902;42.130;24.732;2022-09-14T07:37:58;3.47;;;3.10;;
5754;SDS011;2902;42.130;24.732;2022-09-14T07:40:25;12.07;;;3.50;;
5754;SDS011;2902;42.130;24.732;2022-09-14T07:42:52;8.97;;;3.03;;
5754;SDS011;2902;42.130;24.732;2022-09-14T07:45:19;6.43;;;3.20;;
5754;SDS011;2902;42.130;24.732;2022-09-14T07:47:46;11.30;;;3.30;;
5754;SDS011;2902;42.130;24.732;2022-09-14T07:50:13;11.33;;;3.00;;
5754;SDS011;2902;42.130;24.732;2022-09-14T07:52:40;5.83;;;3.37;;
5754;SDS011;2902;42.130;24.732;2022-09-14T07:55:09;9.97;;;3.37;;
5754;SDS011;2902;42.130;24.732;2022-09-14T07:57:37;5.47;;;2.53;;
5754;SDS011;2902;42.130;24.732;2022-09-14T08:00:04;7.87;;;2.97;;
5754;SDS011;2902;42.130;24.732;2022-09-14T08:02:32;7.67;;;2.97;;
5754;SDS011;2902;42.130;24.732;2022-09-14T08:04:59;8.63;;;3.03;;
5754;SDS011;2902;42.130;24.732;2022-09-14T08:07:26;2.60;;;2.40;;
5754;SDS011;2902;42.130;24.732;2022-09-14T08:09:53;12.43;;;3.03;;
5754;SDS011;2902;42.130;24.732;2022-09-14T08:12:21;5.77;;;2.77;;
5754;SDS011;2902;42.130;24.732;2022-09-14T08:14:48;10.03;;;2.70;;
5754;SDS011;2902;42.130;24.732;2022-09-14T08:17:16;5.80;;;3.20;;
5754;SDS011;2902;42.130;24.732;2022-09-14T08:19:46;7.40;;;2.80;;
5754;SDS011;2902;42.130;24.732;2022-09-14T08:22:12;4.00;;;2.20;;
5754;SDS011;2902;42.130;24.732;2022-09-14T08:24:39;5.73;;;2.67;;
5754;SDS011;2902;42.130;24.732;2022-09-14T08:27:07;4.10;;;2.40;;
5754;SDS011;2902;42.130;24.732;2022-09-14T08:29:36;7.33;;;3.03;;
5754;SDS011;2902;42.130;24.732;2022-09-14T08:32:03;8.40;;;2.50;;
5754;SDS011;2902;42.130;24.732;2022-09-14T08:34:30;4.53;;;2.47;;
5754;SDS011;2902;42.130;24.732;2022-09-14T08:36:58;3.17;;;2.40;;
5754;SDS011;2902;42.130;24.732;2022-09-14T08:39:25;5.73;;;2.50;;
5754;SDS011;2902;42.130;24.732;2022-09-14T08:41:52;2.37;;;2.17;;
5754;SDS011;2902;42.130;24.732;2022-09-14T08:44:22;5.17;;;2.27;;
5754;SDS011;2902;42.130;24.732;2022-09-14T08:46:54;4.17;;;2.40;;
5754;SDS011;2902;42.130;24.732;2022-09-14T08:49:29;5.23;;;2.30;;
5754;SDS011;2902;42.130;24.732;2022-09-14T08:52:04;5.97;;;3.03;;
5754;SDS011;2902;42.130;24.732;2022-09-14T08:54:35;15.47;;;13.97;;
5754;SDS011;2902;42.130;24.732;2022-09-14T08:57:03;17.30;;;4.07;;
5754;SDS011;2902;42.130;24.732;2022-09-14T08:59:40;7.37;;;5.60;;
5754;SDS011;2902;42.130;24.732;2022-09-14T09:02:20;5.80;;;4.00;;
5754;SDS011;2902;42.130;24.732;2022-09-14T09:04:57;12.77;;;2.30;;
5754;SDS011;2902;42.130;24.732;2022-09-14T09:07:34;4.60;;;1.60;;
5754;SDS011;2902;42.130;24.732;2022-09-14T09:10:04;2.83;;;1.80;;
5754;SDS011;2902;42.130;24.732;2022-09-14T09:12:34;3.47;;;1.77;;
5754;SDS011;2902;42.130;24.732;2022-09-14T09:15:04;2.57;;;1.93;;
5754;SDS011;2902;42.130;24.732;2022-09-14T09:17:43;5.90;;;1.57;;
5754;SDS011;2902;42.130;24.732;2022-09-14T09:20:14;6.93;;;1.93;;
5754;SDS011;2902;42.130;24.732;2022-09-14T09:22:45;5.43;;;1.97;;
5754;SDS011;2902;42.130;24.732;2022-09-14T09:25:18;2.73;;;1.80;;
5754;SDS011;2902;42.130;24.732;2022-09-14T09:27:47;5.53;;;1.97;;
5754;SDS011;2902;42.130;24.732;2022-09-14T09:30:15;3.77;;;1.97;;
5754;SDS011;2902;42.130;24.732;2022-09-14T09:32:43;2.60;;;1.70;;
5754;SDS011;2902;42.130;24.732;2022-09-14T09:35:13;2.90;;;1.77;;
5754;SDS011;2902;42.130;24.732;2022-09-14T09:37:42;2.87;;;1.73;;
5754;SDS011;2902;42.130;24.732;2022-09-14T09:40:12;5.83;;;1.47;;
5754;SDS011;2902;42.130;24.732;2022-09-14T09:45:34;2.87;;;1.47;;
5754;SDS011;2902;42.130;24.732;2022-09-14T09:48:14;1.70;;;1.60;;
5754;SDS011;2902;42.130;24.732;2022-09-14T09:50:46;3.17;;;1.60;;
5754;SDS011;2902;42.130;24.732;2022-09-14T09:53:17;12.37;;;2.13;;
5754;SDS011;2902;42.130;24.732;2022-09-14T09:55:47;1.60;;;1.30;;
5754;SDS011;2902;42.130;24.732;2022-09-14T09:58:19;1.50;;;1.40;;
5754;SDS011;2902;42.130;24.732;2022-09-14T10:00:54;1.30;;;1.30;;
5754;SDS011;2902;42.130;24.732;2022-09-14T10:03:32;3.37;;;1.50;;
5754;SDS011;2902;42.130;24.732;2022-09-14T10:06:02;2.07;;;1.27;;
5754;SDS011;2902;42.130;24.732;2022-09-14T10:08:32;6.93;;;1.90;;
5754;SDS011;2902;42.130;24.732;2022-09-14T10:17:07;2.20;;;2.00;;
5754;SDS011;2902;42.130;24.732;2022-09-14T10:19:46;6.83;;;2.50;;
5754;SDS011;2902;42.130;24.732;2022-09-14T10:22:16;5.17;;;2.10;;
5754;SDS011;2902;42.130;24.732;2022-09-14T10:24:59;2.00;;;1.73;;
5754;SDS011;2902;42.130;24.732;2022-09-14T10:27:31;2.83;;;1.57;;
5754;SDS011;2902;42.130;24.732;2022-09-14T10:30:13;2.90;;;1.50;;
5754;SDS011;2902;42.130;24.732;2022-09-14T10:32:44;5.43;;;1.27;;
5754;SDS011;2902;42.130;24.732;2022-09-14T10:35:15;2.60;;;1.60;;
5754;SDS011;2902;42.130;24.732;2022-09-14T10:37:55;1.50;;;1.40;;
5754;SDS011;2902;42.130;24.732;2022-09-14T10:40:34;2.20;;;1.73;;
5754;SDS011;2902;42.130;24.732;2022-09-14T10:43:08;5.90;;;1.60;;
5754;SDS011;2902;42.130;24.732;2022-09-14T10:45:40;1.60;;;1.50;;
5754;SDS011;2902;42.130;24.732;2022-09-14T10:48:14;2.03;;;1.43;;
5754;SDS011;2902;42.130;24.732;2022-09-14T10:50:55;1.83;;;1.60;;
5754;SDS011;2902;42.130;24.732;2022-09-14T10:53:31;1.47;;;1.43;;
5754;SDS011;2902;42.130;24.732;2022-09-14T10:56:08;2.33;;;1.40;;
5754;SDS011;2902;42.130;24.732;2022-09-14T10:58:44;4.10;;;1.93;;
5754;SDS011;2902;42.130;24.732;2022-09-14T11:01:49;1.50;;;1.40;;
5754;SDS011;2902;42.130;24.732;2022-09-14T11:04:37;3.33;;;1.20;;
5754;SDS011;2902;42.130;24.732;2022-09-14T11:07:17;1.50;;;1.50;;
5754;SDS011;2902;42.130;24.732;2022-09-14T11:09:53;2.37;;;2.17;;
5754;SDS011;2902;42.130;24.732;2022-09-14T11:12:29;4.17;;;1.80;;
5754;SDS011;2902;42.130;24.732;2022-09-14T11:15:07;13.50;;;1.97;;
5754;SDS011;2902;42.130;24.732;2022-09-14T11:17:50;3.53;;;2.00;;
5754;SDS011;2902;42.130;24.732;2022-09-14T11:20:31;2.03;;;1.50;;
5754;SDS011;2902;42.130;24.732;2022-09-14T11:23:14;4.90;;;1.90;;
5754;SDS011;2902;42.130;24.732;2022-09-14T11:25:52;3.90;;;1.97;;
5754;SDS011;2902;42.130;24.732;2022-09-14T11:28:22;1.93;;;1.80;;
5754;SDS011;2902;42.130;24.732;2022-09-14T11:30:53;2.40;;;1.60;;
5754;SDS011;2902;42.130;24.732;2022-09-14T11:33:26;1.57;;;1.33;;
5754;SDS011;2902;42.130;24.732;2022-09-14T11:35:59;6.37;;;1.43;;
5754;SDS011;2902;42.130;24.732;2022-09-14T11:38:34;2.17;;;1.50;;
5754;SDS011;2902;42.130;24.732;2022-09-14T11:41:05;1.67;;;1.57;;
5754;SDS011;2902;42.130;24.732;2022-09-14T11:43:41;1.80;;;1.70;;
5754;SDS011;2902;42.130;24.732;2022-09-14T11:46:14;3.20;;;1.70;;
5754;SDS011;2902;42.130;24.732;2022-09-14T11:48:46;2.07;;;1.97;;
5754;SDS011;2902;42.130;24.732;2022-09-14T11:51:20;58.73;;;4.33;;
5754;SDS011;2902;42.130;24.732;2022-09-14T11:53:53;3.20;;;1.50;;
5754;SDS011;2902;42.130;24.732;2022-09-14T11:56:21;3.70;;;1.53;;
5754;SDS011;2902;42.130;24.732;2022-09-14T11:58:51;2.20;;;1.83;;
5754;SDS011;2902;42.130;24.732;2022-09-14T12:04:09;2.73;;;1.57;;
5754;SDS011;2902;42.130;24.732;2022-09-14T12:06:40;2.73;;;1.60;;
5754;SDS011;2902;42.130;24.732;2022-09-14T12:15:00;4.43;;;1.50;;
5754;SDS011;2902;42.130;24.732;2022-09-14T12:17:32;3.53;;;1.60;;
5754;SDS011;2902;42.130;24.732;2022-09-14T12:23:14;2.70;;;1.47;;
5754;SDS011;2902;42.130;24.732;2022-09-14T12:28:50;1.37;;;1.27;;
5754;SDS011;2902;42.130;24.732;2022-09-14T12:31:31;1.57;;;1.47;;
5754;SDS011;2902;42.130;24.732;2022-09-14T12:34:11;2.70;;;1.20;;
5754;SDS011;2902;42.130;24.732;2022-09-14T12:36:56;1.53;;;1.37;;
5754;SDS011;2902;42.130;24.732;2022-09-14T12:39:26;3.43;;;1.50;;
5754;SDS011;2902;42.130;24.732;2022-09-14T12:44:49;1.73;;;1.63;;
5754;SDS011;2902;42.130;24.732;2022-09-14T12:50:22;5.23;;;1.80;;
5754;SDS011;2902;42.130;24.732;2022-09-14T12:53:12;4.10;;;1.33;;
5754;SDS011;2902;42.130;24.732;2022-09-14T12:55:55;2.67;;;1.43;;
5754;SDS011;2902;42.130;24.732;2022-09-14T12:58:32;2.60;;;1.20;;
5754;SDS011;2902;42.130;24.732;2022-09-14T13:01:22;4.53;;;1.60;;
5754;SDS011;2902;42.130;24.732;2022-09-14T13:03:54;2.03;;;1.57;;
5754;SDS011;2902;42.130;24.732;2022-09-14T13:06:22;2.60;;;1.80;;
5754;SDS011;2902;42.130;24.732;2022-09-14T13:08:52;1.70;;;1.60;;
5754;SDS011;2902;42.130;24.732;2022-09-14T13:11:23;2.30;;;1.30;;
5754;SDS011;2902;42.130;24.732;2022-09-14T13:13:55;6.60;;;1.77;;
5754;SDS011;2902;42.130;24.732;2022-09-14T13:16:29;2.63;;;1.50;;
5754;SDS011;2902;42.130;24.732;2022-09-14T13:19:03;2.10;;;1.90;;
5754;SDS011;2902;42.130;24.732;2022-09-14T13:21:31;2.77;;;1.40;;
5754;SDS011;2902;42.130;24.732;2022-09-14T13:23:58;3.97;;;1.60;;
5754;SDS011;2902;42.130;24.732;2022-09-14T13:26:26;3.83;;;1.90;;
5754;SDS011;2902;42.130;24.732;2022-09-14T13:28:57;2.93;;;1.30;;
5754;SDS011;2902;42.130;24.732;2022-09-14T13:31:27;1.43;;;1.33;;
5754;SDS011;2902;42.130;24.732;2022-09-14T13:33:57;5.33;;;2.30;;
5754;SDS011;2902;42.130;24.732;2022-09-14T13:36:25;2.93;;;1.77;;
5754;SDS011;2902;42.130;24.732;2022-09-14T13:38:54;2.53;;;1.77;;
5754;SDS011;2902;42.130;24.732;2022-09-14T13:41:23;2.83;;;1.70;;
5754;SDS011;2902;42.130;24.732;2022-09-14T13:43:51;2.80;;;1.47;;
5754;SDS011;2902;42.130;24.732;2022-09-14T13:46:21;2.07;;;1.97;;
5754;SDS011;2902;42.130;24.732;2022-09-14T13:48:49;4.50;;;1.70;;
5754;SDS011;2902;42.130;24.732;2022-09-14T13:51:20;2.43;;;2.20;;
5754;SDS011;2902;42.130;24.732;2022-09-14T13:53:49;6.63;;;3.93;;
5754;SDS011;2902;42.130;24.732;2022-09-14T13:56:17;3.87;;;1.60;;
5754;SDS011;2902;42.130;24.732;2022-09-14T13:58:46;2.00;;;1.70;;
5754;SDS011;2902;42.130;24.732;2022-09-14T14:01:23;1.80;;;1.70;;
5754;SDS011;2902;42.130;24.732;2022-09-14T14:03:52;3.33;;;1.80;;
5754;SDS011;2902;42.130;24.732;2022-09-14T14:06:20;1.90;;;1.80;;
5754;SDS011;2902;42.130;24.732;2022-09-14T14:08:53;4.20;;;2.00;;
5754;SDS011;2902;42.130;24.732;2022-09-14T14:11:26;2.10;;;1.60;;
5754;SDS011;2902;42.130;24.732;2022-09-14T14:13:55;1.70;;;1.60;;
5754;SDS011;2902;42.130;24.732;2022-09-14T14:16:36;4.27;;;1.63;;
5754;SDS011;2902;42.130;24.732;2022-09-14T14:19:02;1.73;;;1.30;;
5754;SDS011;2902;42.130;24.732;2022-09-14T14:21:30;8.50;;;1.83;;
5754;SDS011;2902;42.130;24.732;2022-09-14T14:24:22;5.37;;;1.43;;
5754;SDS011;2902;42.130;24.732;2022-09-14T14:26:52;8.10;;;1.90;;
5754;SDS011;2902;42.130;24.732;2022-09-14T14:29:20;8.93;;;2.20;;
5754;SDS011;2902;42.130;24.732;2022-09-14T14:31:49;6.03;;;1.90;;
5754;SDS011;2902;42.130;24.732;2022-09-14T14:34:17;2.07;;;1.53;;
5754;SDS011;2902;42.130;24.732;2022-09-14T14:36:46;3.50;;;2.10;;
5754;SDS011;2902;42.130;24.732;2022-09-14T14:39:14;2.30;;;2.00;;
5754;SDS011;2902;42.130;24.732;2022-09-14T14:41:42;4.30;;;2.60;;
5754;SDS011;2902;42.130;24.732;2022-09-14T14:44:10;1.90;;;1.60;;
5754;SDS011;2902;42.130;24.732;2022-09-14T14:46:44;3.07;;;2.10;;
5754;SDS011;2902;42.130;24.732;2022-09-14T14:49:13;5.37;;;1.70;;
5754;SDS011;2902;42.130;24.732;2022-09-14T14:51:41;48.33;;;4.73;;
5754;SDS011;2902;42.130;24.732;2022-09-14T14:54:08;5.23;;;2.20;;
5754;SDS011;2902;42.130;24.732;2022-09-14T14:56:35;4.77;;;1.80;;
5754;SDS011;2902;42.130;24.732;2022-09-14T14:59:02;5.47;;;1.80;;
5754;SDS011;2902;42.130;24.732;2022-09-14T15:01:40;3.23;;;1.70;;
5754;SDS011;2902;42.130;24.732;2022-09-14T15:04:07;1.50;;;1.20;;
5754;SDS011;2902;42.130;24.732;2022-09-14T15:06:35;2.73;;;1.57;;
5754;SDS011;2902;42.130;24.732;2022-09-14T15:09:03;5.80;;;1.90;;
5754;SDS011;2902;42.130;24.732;2022-09-14T15:11:33;2.60;;;1.90;;
5754;SDS011;2902;42.130;24.732;2022-09-14T15:14:02;4.20;;;1.67;;
5754;SDS011;2902;42.130;24.732;2022-09-14T15:16:29;2.73;;;1.73;;
5754;SDS011;2902;42.130;24.732;2022-09-14T15:18:56;8.47;;;2.30;;
5754;SDS011;2902;42.130;24.732;2022-09-14T15:21:23;4.17;;;1.83;;
5754;SDS011;2902;42.130;24.732;2022-09-14T15:23:51;8.67;;;2.73;;
5754;SDS011;2902;42.130;24.732;2022-09-14T15:26:18;7.57;;;2.00;;
5754;SDS011;2902;42.130;24.732;2022-09-14T15:28:44;8.20;;;2.63;;
5754;SDS011;2902;42.130;24.732;2022-09-14T15:31:12;9.00;;;3.00;;
5754;SDS011;2902;42.130;24.732;2022-09-14T15:33:39;2.87;;;2.60;;
5754;SDS011;2902;42.130;24.732;2022-09-14T15:36:06;5.93;;;2.47;;
5754;SDS011;2902;42.130;24.732;2022-09-14T15:38:33;10.40;;;2.83;;
5754;SDS011;2902;42.130;24.732;2022-09-14T15:41:01;10.07;;;3.80;;
5754;SDS011;2902;42.130;24.732;2022-09-14T15:43:27;7.03;;;3.00;;
5754;SDS011;2902;42.130;24.732;2022-09-14T15:45:54;19.80;;;3.10;;
5754;SDS011;2902;42.130;24.732;2022-09-14T15:48:27;5.37;;;3.83;;